sensor_id;sensor_type;location;lat;lon;timestamp;P1;durP1;ratioP1;P2;durP2;ratioP2
26820;SDS011;37186;51.394;5.454;2022-11-15T00:00:44;3.87;;;3.77;;
26820;SDS011;37186;51.394;5.454;2022-11-15T00:03:44;3.90;;;3.80;;
26820;SDS011;37186;51.394;5.454;2022-11-15T00:06:45;4.17;;;4.07;;
26820;SDS011;37186;51.394;5.454;2022-11-15T00:09:46;3.93;;;3.83;;
26820;SDS011;37186;51.394;5.454;2022-11-15T00:12:46;3.93;;;3.83;;
26820;SDS011;37186;51.394;5.454;2022-11-15T00:15:47;3.97;;;3.87;;
26820;SDS011;37186;51.394;5.454;2022-11-15T00:18:48;4.17;;;4.07;;
26820;SDS011;37186;51.394;5.454;2022-11-15T00:21:48;3.93;;;3.83;;
26820;SDS011;37186;51.394;5.454;2022-11-15T00:24:49;3.87;;;3.77;;
26820;SDS011;37186;51.394;5.454;2022-11-15T00:27:49;3.83;;;3.73;;
26820;SDS011;37186;51.394;5.454;2022-11-15T00:30:51;3.83;;;3.73;;
26820;SDS011;37186;51.394;5.454;2022-11-15T00:33:52;4.03;;;3.93;;
26820;SDS011;37186;51.394;5.454;2022-11-15T00:36:53;4.10;;;4.00;;
26820;SDS011;37186;51.394;5.454;2022-11-15T00:39:53;4.13;;;4.03;;
26820;SDS011;37186;51.394;5.454;2022-11-15T00:42:54;4.17;;;4.07;;
26820;SDS011;37186;51.394;5.454;2022-11-15T00:45:54;4.30;;;4.20;;
26820;SDS011;37186;51.394;5.454;2022-11-15T00:48:55;4.10;;;4.00;;
26820;SDS011;37186;51.394;5.454;2022-11-15T00:51:55;4.27;;;4.17;;
26820;SDS011;37186;51.394;5.454;2022-11-15T00:54:56;4.13;;;4.03;;
26820;SDS011;37186;51.394;5.454;2022-11-15T00:57:56;4.00;;;3.90;;
26820;SDS011;37186;51.394;5.454;2022-11-15T01:01:04;3.97;;;3.87;;
26820;SDS011;37186;51.394;5.454;2022-11-15T01:04:06;4.00;;;3.90;;
26820;SDS011;37186;51.394;5.454;2022-11-15T01:07:07;4.20;;;4.10;;
26820;SDS011;37186;51.394;5.454;2022-11-15T01:10:08;4.20;;;4.10;;
26820;SDS011;37186;51.394;5.454;2022-11-15T01:13:08;4.27;;;4.17;;
26820;SDS011;37186;51.394;5.454;2022-11-15T01:16:10;4.00;;;3.90;;
26820;SDS011;37186;51.394;5.454;2022-11-15T01:19:13;4.07;;;3.97;;
26820;SDS011;37186;51.394;5.454;2022-11-15T01:22:13;4.07;;;3.97;;
26820;SDS011;37186;51.394;5.454;2022-11-15T01:25:14;4.10;;;4.00;;
26820;SDS011;37186;51.394;5.454;2022-11-15T01:28:15;4.13;;;4.03;;
26820;SDS011;37186;51.394;5.454;2022-11-15T01:31:16;4.23;;;4.13;;
26820;SDS011;37186;51.394;5.454;2022-11-15T01:34:18;4.07;;;3.97;;
26820;SDS011;37186;51.394;5.454;2022-11-15T01:37:19;4.03;;;3.93;;
26820;SDS011;37186;51.394;5.454;2022-11-15T01:40:19;3.87;;;3.77;;
26820;SDS011;37186;51.394;5.454;2022-11-15T01:43:20;4.07;;;3.97;;
26820;SDS011;37186;51.394;5.454;2022-11-15T01:46:28;4.03;;;3.93;;
26820;SDS011;37186;51.394;5.454;2022-11-15T01:49:32;4.03;;;3.93;;
26820;SDS011;37186;51.394;5.454;2022-11-15T01:52:35;4.03;;;3.93;;
26820;SDS011;37186;51.394;5.454;2022-11-15T01:55:37;3.73;;;3.63;;
26820;SDS011;37186;51.394;5.454;2022-11-15T01:58:38;3.87;;;3.77;;
26820;SDS011;37186;51.394;5.454;2022-11-15T02:01:40;3.80;;;3.70;;
26820;SDS011;37186;51.394;5.454;2022-11-15T02:04:50;3.80;;;3.70;;
26820;SDS011;37186;51.394;5.454;2022-11-15T02:07:50;3.70;;;3.60;;
26820;SDS011;37186;51.394;5.454;2022-11-15T02:10:51;3.63;;;3.53;;
26820;SDS011;37186;51.394;5.454;2022-11-15T02:13:52;3.80;;;3.70;;
26820;SDS011;37186;51.394;5.454;2022-11-15T02:17:07;3.53;;;3.43;;
26820;SDS011;37186;51.394;5.454;2022-11-15T02:20:39;3.70;;;3.60;;
26820;SDS011;37186;51.394;5.454;2022-11-15T02:24:09;3.83;;;3.73;;
26820;SDS011;37186;51.394;5.454;2022-11-15T02:27:48;3.63;;;3.53;;
26820;SDS011;37186;51.394;5.454;2022-11-15T02:31:14;3.50;;;3.40;;
26820;SDS011;37186;51.394;5.454;2022-11-15T02:37:59;3.70;;;3.60;;
26820;SDS011;37186;51.394;5.454;2022-11-15T02:41:19;3.70;;;3.60;;
26820;SDS011;37186;51.394;5.454;2022-11-15T02:44:31;3.67;;;3.57;;
26820;SDS011;37186;51.394;5.454;2022-11-15T02:47:38;3.60;;;3.50;;
26820;SDS011;37186;51.394;5.454;2022-11-15T02:50:43;3.80;;;3.70;;
26820;SDS011;37186;51.394;5.454;2022-11-15T02:53:45;3.50;;;3.40;;
26820;SDS011;37186;51.394;5.454;2022-11-15T02:56:45;3.70;;;3.60;;
26820;SDS011;37186;51.394;5.454;2022-11-15T02:59:54;3.70;;;3.60;;
26820;SDS011;37186;51.394;5.454;2022-11-15T03:03:21;3.70;;;3.60;;
26820;SDS011;37186;51.394;5.454;2022-11-15T03:06:42;3.60;;;3.50;;
26820;SDS011;37186;51.394;5.454;2022-11-15T03:13:26;3.40;;;3.30;;
26820;SDS011;37186;51.394;5.454;2022-11-15T03:16:50;3.50;;;3.40;;
26820;SDS011;37186;51.394;5.454;2022-11-15T03:20:07;3.43;;;3.33;;
26820;SDS011;37186;51.394;5.454;2022-11-15T03:23:09;3.60;;;3.50;;
26820;SDS011;37186;51.394;5.454;2022-11-15T03:26:11;3.70;;;3.60;;
26820;SDS011;37186;51.394;5.454;2022-11-15T03:29:15;3.50;;;3.40;;
26820;SDS011;37186;51.394;5.454;2022-11-15T03:32:20;3.60;;;3.50;;
26820;SDS011;37186;51.394;5.454;2022-11-15T03:35:27;3.50;;;3.40;;
26820;SDS011;37186;51.394;5.454;2022-11-15T03:38:30;3.70;;;3.60;;
26820;SDS011;37186;51.394;5.454;2022-11-15T03:41:37;3.50;;;3.40;;
26820;SDS011;37186;51.394;5.454;2022-11-15T03:44:51;3.40;;;3.30;;
26820;SDS011;37186;51.394;5.454;2022-11-15T03:48:13;3.50;;;3.40;;
26820;SDS011;37186;51.394;5.454;2022-11-15T03:51:18;3.30;;;3.20;;
26820;SDS011;37186;51.394;5.454;2022-11-15T03:54:19;3.70;;;3.60;;
26820;SDS011;37186;51.394;5.454;2022-11-15T03:57:20;3.50;;;3.40;;
26820;SDS011;37186;51.394;5.454;2022-11-15T04:00:20;3.60;;;3.50;;
26820;SDS011;37186;51.394;5.454;2022-11-15T04:03:21;3.47;;;3.37;;
26820;SDS011;37186;51.394;5.454;2022-11-15T04:06:21;3.50;;;3.40;;
26820;SDS011;37186;51.394;5.454;2022-11-15T04:09:22;3.40;;;3.30;;
26820;SDS011;37186;51.394;5.454;2022-11-15T04:12:23;3.37;;;3.27;;
26820;SDS011;37186;51.394;5.454;2022-11-15T04:15:32;3.50;;;3.40;;
26820;SDS011;37186;51.394;5.454;2022-11-15T04:18:33;3.43;;;3.33;;
26820;SDS011;37186;51.394;5.454;2022-11-15T04:21:34;3.53;;;3.43;;
26820;SDS011;37186;51.394;5.454;2022-11-15T04:24:53;3.50;;;3.40;;
26820;SDS011;37186;51.394;5.454;2022-11-15T04:27:53;3.70;;;3.60;;
26820;SDS011;37186;51.394;5.454;2022-11-15T04:30:54;3.57;;;3.47;;
26820;SDS011;37186;51.394;5.454;2022-11-15T04:33:54;3.47;;;3.37;;
26820;SDS011;37186;51.394;5.454;2022-11-15T04:36:55;3.50;;;3.40;;
26820;SDS011;37186;51.394;5.454;2022-11-15T04:40:15;3.93;;;3.83;;
26820;SDS011;37186;51.394;5.454;2022-11-15T04:43:15;3.50;;;3.40;;
26820;SDS011;37186;51.394;5.454;2022-11-15T04:46:16;3.47;;;3.37;;
26820;SDS011;37186;51.394;5.454;2022-11-15T04:49:16;3.77;;;3.67;;
26820;SDS011;37186;51.394;5.454;2022-11-15T04:52:17;3.57;;;3.47;;
26820;SDS011;37186;51.394;5.454;2022-11-15T04:55:18;3.60;;;3.50;;
26820;SDS011;37186;51.394;5.454;2022-11-15T04:58:18;3.57;;;3.47;;
26820;SDS011;37186;51.394;5.454;2022-11-15T05:01:19;3.40;;;3.30;;
26820;SDS011;37186;51.394;5.454;2022-11-15T05:04:19;3.63;;;3.53;;
26820;SDS011;37186;51.394;5.454;2022-11-15T05:07:20;3.33;;;3.23;;
26820;SDS011;37186;51.394;5.454;2022-11-15T05:10:21;3.60;;;3.50;;
26820;SDS011;37186;51.394;5.454;2022-11-15T05:13:21;3.50;;;3.40;;
26820;SDS011;37186;51.394;5.454;2022-11-15T05:16:22;3.63;;;3.53;;
26820;SDS011;37186;51.394;5.454;2022-11-15T05:19:22;3.80;;;3.70;;
26820;SDS011;37186;51.394;5.454;2022-11-15T05:22:23;3.57;;;3.47;;
26820;SDS011;37186;51.394;5.454;2022-11-15T05:25:24;3.77;;;3.67;;
26820;SDS011;37186;51.394;5.454;2022-11-15T05:28:25;3.77;;;3.67;;
26820;SDS011;37186;51.394;5.454;2022-11-15T05:31:26;3.83;;;3.73;;
26820;SDS011;37186;51.394;5.454;2022-11-15T05:34:27;3.87;;;3.77;;
26820;SDS011;37186;51.394;5.454;2022-11-15T05:37:28;3.73;;;3.63;;
26820;SDS011;37186;51.394;5.454;2022-11-15T05:40:29;3.57;;;3.47;;
26820;SDS011;37186;51.394;5.454;2022-11-15T05:43:31;3.57;;;3.47;;
26820;SDS011;37186;51.394;5.454;2022-11-15T05:46:35;3.73;;;3.63;;
26820;SDS011;37186;51.394;5.454;2022-11-15T05:49:37;3.73;;;3.63;;
26820;SDS011;37186;51.394;5.454;2022-11-15T05:52:41;3.50;;;3.40;;
26820;SDS011;37186;51.394;5.454;2022-11-15T05:55:42;3.53;;;3.43;;
26820;SDS011;37186;51.394;5.454;2022-11-15T05:58:42;3.67;;;3.57;;
26820;SDS011;37186;51.394;5.454;2022-11-15T06:01:43;3.50;;;3.40;;
26820;SDS011;37186;51.394;5.454;2022-11-15T06:04:44;3.47;;;3.37;;
26820;SDS011;37186;51.394;5.454;2022-11-15T06:07:44;3.37;;;3.27;;
26820;SDS011;37186;51.394;5.454;2022-11-15T06:10:45;3.47;;;3.37;;
26820;SDS011;37186;51.394;5.454;2022-11-15T06:13:45;3.53;;;3.43;;
26820;SDS011;37186;51.394;5.454;2022-11-15T06:16:46;3.47;;;3.37;;
26820;SDS011;37186;51.394;5.454;2022-11-15T06:19:46;3.43;;;3.33;;
26820;SDS011;37186;51.394;5.454;2022-11-15T06:22:47;3.33;;;3.23;;
26820;SDS011;37186;51.394;5.454;2022-11-15T06:25:47;3.53;;;3.43;;
26820;SDS011;37186;51.394;5.454;2022-11-15T06:28:48;3.50;;;3.40;;
26820;SDS011;37186;51.394;5.454;2022-11-15T06:31:48;3.60;;;3.50;;
26820;SDS011;37186;51.394;5.454;2022-11-15T06:34:49;3.43;;;3.33;;
26820;SDS011;37186;51.394;5.454;2022-11-15T06:37:49;3.43;;;3.33;;
26820;SDS011;37186;51.394;5.454;2022-11-15T06:40:50;3.50;;;3.40;;
26820;SDS011;37186;51.394;5.454;2022-11-15T06:43:50;3.40;;;3.30;;
26820;SDS011;37186;51.394;5.454;2022-11-15T06:46:51;3.30;;;3.20;;
26820;SDS011;37186;51.394;5.454;2022-11-15T06:49:51;3.30;;;3.20;;
26820;SDS011;37186;51.394;5.454;2022-11-15T06:52:52;3.47;;;3.37;;
26820;SDS011;37186;51.394;5.454;2022-11-15T06:55:53;3.50;;;3.40;;
26820;SDS011;37186;51.394;5.454;2022-11-15T06:58:58;3.53;;;3.43;;
26820;SDS011;37186;51.394;5.454;2022-11-15T07:01:58;3.60;;;3.50;;
26820;SDS011;37186;51.394;5.454;2022-11-15T07:04:59;3.50;;;3.40;;
26820;SDS011;37186;51.394;5.454;2022-11-15T07:07:59;3.50;;;3.40;;
26820;SDS011;37186;51.394;5.454;2022-11-15T07:11:06;3.50;;;3.40;;
26820;SDS011;37186;51.394;5.454;2022-11-15T07:14:07;3.40;;;3.30;;
26820;SDS011;37186;51.394;5.454;2022-11-15T07:17:08;3.60;;;3.50;;
26820;SDS011;37186;51.394;5.454;2022-11-15T07:20:09;3.50;;;3.40;;
26820;SDS011;37186;51.394;5.454;2022-11-15T07:23:10;3.33;;;3.23;;
26820;SDS011;37186;51.394;5.454;2022-11-15T07:26:10;3.40;;;3.30;;
26820;SDS011;37186;51.394;5.454;2022-11-15T07:29:11;3.40;;;3.30;;
26820;SDS011;37186;51.394;5.454;2022-11-15T07:32:11;3.50;;;3.40;;
26820;SDS011;37186;51.394;5.454;2022-11-15T07:35:12;3.70;;;3.60;;
26820;SDS011;37186;51.394;5.454;2022-11-15T07:38:12;3.80;;;3.70;;
26820;SDS011;37186;51.394;5.454;2022-11-15T07:41:14;3.63;;;3.53;;
26820;SDS011;37186;51.394;5.454;2022-11-15T07:44:15;3.57;;;3.47;;
26820;SDS011;37186;51.394;5.454;2022-11-15T07:47:15;3.60;;;3.50;;
26820;SDS011;37186;51.394;5.454;2022-11-15T07:50:16;3.60;;;3.50;;
26820;SDS011;37186;51.394;5.454;2022-11-15T07:53:17;3.57;;;3.47;;
26820;SDS011;37186;51.394;5.454;2022-11-15T07:56:17;3.50;;;3.40;;
26820;SDS011;37186;51.394;5.454;2022-11-15T07:59:18;3.70;;;3.60;;
26820;SDS011;37186;51.394;5.454;2022-11-15T08:02:19;3.60;;;3.50;;
26820;SDS011;37186;51.394;5.454;2022-11-15T08:05:20;3.60;;;3.50;;
26820;SDS011;37186;51.394;5.454;2022-11-15T08:08:20;3.60;;;3.50;;
26820;SDS011;37186;51.394;5.454;2022-11-15T08:11:21;3.53;;;3.43;;
26820;SDS011;37186;51.394;5.454;2022-11-15T08:14:21;3.43;;;3.33;;
26820;SDS011;37186;51.394;5.454;2022-11-15T08:17:23;3.60;;;3.50;;
26820;SDS011;37186;51.394;5.454;2022-11-15T08:20:25;3.60;;;3.50;;
26820;SDS011;37186;51.394;5.454;2022-11-15T08:23:29;3.50;;;3.40;;
26820;SDS011;37186;51.394;5.454;2022-11-15T08:26:30;3.67;;;3.57;;
26820;SDS011;37186;51.394;5.454;2022-11-15T08:29:31;3.53;;;3.43;;
26820;SDS011;37186;51.394;5.454;2022-11-15T08:32:31;3.37;;;3.27;;
26820;SDS011;37186;51.394;5.454;2022-11-15T08:35:32;3.50;;;3.40;;
26820;SDS011;37186;51.394;5.454;2022-11-15T08:38:32;3.43;;;3.33;;
26820;SDS011;37186;51.394;5.454;2022-11-15T08:41:34;3.43;;;3.33;;
26820;SDS011;37186;51.394;5.454;2022-11-15T08:44:36;3.43;;;3.33;;
26820;SDS011;37186;51.394;5.454;2022-11-15T08:47:37;3.47;;;3.37;;
26820;SDS011;37186;51.394;5.454;2022-11-15T08:50:37;3.67;;;3.57;;
26820;SDS011;37186;51.394;5.454;2022-11-15T08:53:38;3.70;;;3.60;;
26820;SDS011;37186;51.394;5.454;2022-11-15T08:56:38;3.67;;;3.57;;
26820;SDS011;37186;51.394;5.454;2022-11-15T08:59:39;3.70;;;3.60;;
26820;SDS011;37186;51.394;5.454;2022-11-15T09:02:40;3.60;;;3.50;;
26820;SDS011;37186;51.394;5.454;2022-11-15T09:05:40;3.70;;;3.60;;
26820;SDS011;37186;51.394;5.454;2022-11-15T09:08:41;3.57;;;3.47;;
26820;SDS011;37186;51.394;5.454;2022-11-15T09:11:41;3.60;;;3.50;;
26820;SDS011;37186;51.394;5.454;2022-11-15T09:14:42;3.70;;;3.60;;
26820;SDS011;37186;51.394;5.454;2022-11-15T09:17:42;3.87;;;3.77;;
26820;SDS011;37186;51.394;5.454;2022-11-15T09:20:43;3.67;;;3.57;;
26820;SDS011;37186;51.394;5.454;2022-11-15T09:23:43;3.60;;;3.50;;
26820;SDS011;37186;51.394;5.454;2022-11-15T09:26:44;3.77;;;3.67;;
26820;SDS011;37186;51.394;5.454;2022-11-15T09:29:45;3.50;;;3.40;;
26820;SDS011;37186;51.394;5.454;2022-11-15T09:32:45;3.70;;;3.60;;
26820;SDS011;37186;51.394;5.454;2022-11-15T09:35:46;3.90;;;3.80;;
26820;SDS011;37186;51.394;5.454;2022-11-15T09:38:46;3.80;;;3.70;;
26820;SDS011;37186;51.394;5.454;2022-11-15T09:42:30;3.80;;;3.70;;
26820;SDS011;37186;51.394;5.454;2022-11-15T09:45:23;3.53;;;3.43;;
26820;SDS011;37186;51.394;5.454;2022-11-15T09:48:48;3.80;;;3.70;;
26820;SDS011;37186;51.394;5.454;2022-11-15T09:51:54;3.90;;;3.80;;
26820;SDS011;37186;51.394;5.454;2022-11-15T09:54:54;3.70;;;3.60;;
26820;SDS011;37186;51.394;5.454;2022-11-15T09:58:15;3.60;;;3.50;;
26820;SDS011;37186;51.394;5.454;2022-11-15T10:01:39;3.70;;;3.60;;
26820;SDS011;37186;51.394;5.454;2022-11-15T10:04:45;3.70;;;3.60;;
26820;SDS011;37186;51.394;5.454;2022-11-15T10:08:35;3.73;;;3.63;;
26820;SDS011;37186;51.394;5.454;2022-11-15T10:11:17;3.70;;;3.60;;
26820;SDS011;37186;51.394;5.454;2022-11-15T10:14:26;3.80;;;3.70;;
26820;SDS011;37186;51.394;5.454;2022-11-15T10:17:33;3.80;;;3.70;;
26820;SDS011;37186;51.394;5.454;2022-11-15T10:21:20;3.80;;;3.70;;
26820;SDS011;37186;51.394;5.454;2022-11-15T10:24:27;3.80;;;3.70;;
26820;SDS011;37186;51.394;5.454;2022-11-15T10:27:31;3.87;;;3.77;;
26820;SDS011;37186;51.394;5.454;2022-11-15T10:30:37;3.80;;;3.70;;
26820;SDS011;37186;51.394;5.454;2022-11-15T10:33:38;3.80;;;3.70;;
26820;SDS011;37186;51.394;5.454;2022-11-15T10:36:43;3.80;;;3.70;;
26820;SDS011;37186;51.394;5.454;2022-11-15T10:39:49;3.70;;;3.60;;
26820;SDS011;37186;51.394;5.454;2022-11-15T10:46:20;3.77;;;3.67;;
26820;SDS011;37186;51.394;5.454;2022-11-15T10:49:23;3.70;;;3.60;;
26820;SDS011;37186;51.394;5.454;2022-11-15T10:52:31;3.70;;;3.60;;
26820;SDS011;37186;51.394;5.454;2022-11-15T10:55:34;3.63;;;3.53;;
26820;SDS011;37186;51.394;5.454;2022-11-15T10:58:36;3.70;;;3.60;;
26820;SDS011;37186;51.394;5.454;2022-11-15T11:01:54;3.80;;;3.70;;
26820;SDS011;37186;51.394;5.454;2022-11-15T11:04:55;4.03;;;3.93;;
26820;SDS011;37186;51.394;5.454;2022-11-15T11:08:00;3.80;;;3.70;;
26820;SDS011;37186;51.394;5.454;2022-11-15T11:11:02;3.70;;;3.60;;
26820;SDS011;37186;51.394;5.454;2022-11-15T11:14:11;3.60;;;3.50;;
26820;SDS011;37186;51.394;5.454;2022-11-15T11:17:17;3.60;;;3.50;;
26820;SDS011;37186;51.394;5.454;2022-11-15T11:23:45;4.00;;;3.90;;
26820;SDS011;37186;51.394;5.454;2022-11-15T11:33:25;4.00;;;3.90;;
26820;SDS011;37186;51.394;5.454;2022-11-15T11:36:44;4.00;;;3.90;;
26820;SDS011;37186;51.394;5.454;2022-11-15T11:46:34;3.90;;;3.80;;
26820;SDS011;37186;51.394;5.454;2022-11-15T11:49:59;4.07;;;3.97;;
26820;SDS011;37186;51.394;5.454;2022-11-15T11:53:27;3.93;;;3.83;;
26820;SDS011;37186;51.394;5.454;2022-11-15T11:56:40;4.23;;;4.13;;
26820;SDS011;37186;51.394;5.454;2022-11-15T11:59:46;4.13;;;4.03;;
26820;SDS011;37186;51.394;5.454;2022-11-15T12:05:55;4.20;;;4.10;;
26820;SDS011;37186;51.394;5.454;2022-11-15T12:15:25;4.53;;;4.43;;
26820;SDS011;37186;51.394;5.454;2022-11-15T12:18:30;4.53;;;4.43;;
26820;SDS011;37186;51.394;5.454;2022-11-15T12:25:03;4.87;;;4.77;;
26820;SDS011;37186;51.394;5.454;2022-11-15T12:28:24;4.80;;;4.70;;
26820;SDS011;37186;51.394;5.454;2022-11-15T12:34:36;5.00;;;4.90;;
26820;SDS011;37186;51.394;5.454;2022-11-15T12:44:55;4.93;;;4.83;;
26820;SDS011;37186;51.394;5.454;2022-11-15T12:47:33;4.50;;;4.40;;
26820;SDS011;37186;51.394;5.454;2022-11-15T12:53:53;4.77;;;4.67;;
26820;SDS011;37186;51.394;5.454;2022-11-15T13:03:18;5.00;;;4.90;;
26820;SDS011;37186;51.394;5.454;2022-11-15T13:06:34;4.90;;;4.80;;
26820;SDS011;37186;51.394;5.454;2022-11-15T13:15:56;5.17;;;5.07;;
26820;SDS011;37186;51.394;5.454;2022-11-15T13:18:59;5.07;;;4.97;;
26820;SDS011;37186;51.394;5.454;2022-11-15T13:22:04;5.47;;;5.37;;
26820;SDS011;37186;51.394;5.454;2022-11-15T13:28:46;4.87;;;4.77;;
26820;SDS011;37186;51.394;5.454;2022-11-15T13:31:49;5.07;;;4.97;;
26820;SDS011;37186;51.394;5.454;2022-11-15T13:34:50;5.40;;;5.30;;
26820;SDS011;37186;51.394;5.454;2022-11-15T13:37:53;5.38;;;5.28;;
26820;SDS011;37186;51.394;5.454;2022-11-15T13:40:55;5.00;;;4.90;;
26820;SDS011;37186;51.394;5.454;2022-11-15T13:43:57;5.07;;;4.97;;
26820;SDS011;37186;51.394;5.454;2022-11-15T13:47:06;4.97;;;4.87;;
26820;SDS011;37186;51.394;5.454;2022-11-15T13:50:13;4.70;;;4.60;;
26820;SDS011;37186;51.394;5.454;2022-11-15T13:53:14;5.00;;;4.90;;
26820;SDS011;37186;51.394;5.454;2022-11-15T13:56:16;4.95;;;4.85;;
26820;SDS011;37186;51.394;5.454;2022-11-15T13:59:24;4.78;;;4.68;;
26820;SDS011;37186;51.394;5.454;2022-11-15T14:02:32;4.83;;;4.73;;
26820;SDS011;37186;51.394;5.454;2022-11-15T14:05:34;5.00;;;4.90;;
26820;SDS011;37186;51.394;5.454;2022-11-15T14:08:35;5.27;;;5.17;;
26820;SDS011;37186;51.394;5.454;2022-11-15T14:11:36;4.80;;;4.70;;
26820;SDS011;37186;51.394;5.454;2022-11-15T14:14:44;4.93;;;4.82;;
26820;SDS011;37186;51.394;5.454;2022-11-15T14:17:45;5.22;;;5.13;;
26820;SDS011;37186;51.394;5.454;2022-11-15T14:20:46;4.72;;;4.63;;
26820;SDS011;37186;51.394;5.454;2022-11-15T14:23:46;4.90;;;4.80;;
26820;SDS011;37186;51.394;5.454;2022-11-15T14:26:48;4.87;;;4.77;;
26820;SDS011;37186;51.394;5.454;2022-11-15T14:29:49;4.73;;;4.63;;
26820;SDS011;37186;51.394;5.454;2022-11-15T14:32:50;4.67;;;4.57;;
26820;SDS011;37186;51.394;5.454;2022-11-15T14:35:51;4.83;;;4.73;;
26820;SDS011;37186;51.394;5.454;2022-11-15T14:38:52;4.80;;;4.70;;
26820;SDS011;37186;51.394;5.454;2022-11-15T14:41:54;4.77;;;4.67;;
26820;SDS011;37186;51.394;5.454;2022-11-15T14:44:54;4.77;;;4.67;;
26820;SDS011;37186;51.394;5.454;2022-11-15T14:47:55;5.03;;;4.93;;
26820;SDS011;37186;51.394;5.454;2022-11-15T14:50:56;4.93;;;4.83;;
26820;SDS011;37186;51.394;5.454;2022-11-15T14:53:56;5.18;;;5.07;;
26820;SDS011;37186;51.394;5.454;2022-11-15T14:56:57;4.90;;;4.80;;
26820;SDS011;37186;51.394;5.454;2022-11-15T14:59:57;5.00;;;4.90;;
26820;SDS011;37186;51.394;5.454;2022-11-15T15:02:58;4.87;;;4.77;;
26820;SDS011;37186;51.394;5.454;2022-11-15T15:05:59;4.77;;;4.67;;
26820;SDS011;37186;51.394;5.454;2022-11-15T15:08:59;4.80;;;4.70;;
26820;SDS011;37186;51.394;5.454;2022-11-15T15:12:00;4.67;;;4.57;;
26820;SDS011;37186;51.394;5.454;2022-11-15T15:15:00;5.10;;;5.00;;
26820;SDS011;37186;51.394;5.454;2022-11-15T15:18:02;5.07;;;4.97;;
26820;SDS011;37186;51.394;5.454;2022-11-15T15:21:20;4.87;;;4.77;;
26820;SDS011;37186;51.394;5.454;2022-11-15T15:24:22;4.57;;;4.47;;
26820;SDS011;37186;51.394;5.454;2022-11-15T15:27:22;4.77;;;4.67;;
26820;SDS011;37186;51.394;5.454;2022-11-15T15:30:24;4.77;;;4.67;;
26820;SDS011;37186;51.394;5.454;2022-11-15T15:33:25;4.90;;;4.80;;
26820;SDS011;37186;51.394;5.454;2022-11-15T15:36:26;4.97;;;4.87;;
26820;SDS011;37186;51.394;5.454;2022-11-15T15:39:26;4.67;;;4.57;;
26820;SDS011;37186;51.394;5.454;2022-11-15T15:42:27;4.90;;;4.80;;
26820;SDS011;37186;51.394;5.454;2022-11-15T15:45:27;4.93;;;4.83;;
26820;SDS011;37186;51.394;5.454;2022-11-15T15:48:29;5.00;;;4.90;;
26820;SDS011;37186;51.394;5.454;2022-11-15T15:51:29;4.53;;;4.43;;
26820;SDS011;37186;51.394;5.454;2022-11-15T15:54:30;5.20;;;5.10;;
26820;SDS011;37186;51.394;5.454;2022-11-15T15:57:30;5.27;;;5.17;;
26820;SDS011;37186;51.394;5.454;2022-11-15T16:00:31;4.97;;;4.87;;
26820;SDS011;37186;51.394;5.454;2022-11-15T16:03:33;5.05;;;4.95;;
26820;SDS011;37186;51.394;5.454;2022-11-15T16:09:39;5.20;;;5.10;;
26820;SDS011;37186;51.394;5.454;2022-11-15T16:12:58;5.20;;;5.10;;
26820;SDS011;37186;51.394;5.454;2022-11-15T16:15:58;5.17;;;5.07;;
26820;SDS011;37186;51.394;5.454;2022-11-15T16:19:00;5.10;;;5.00;;
26820;SDS011;37186;51.394;5.454;2022-11-15T16:22:00;4.85;;;4.75;;
26820;SDS011;37186;51.394;5.454;2022-11-15T16:25:01;5.10;;;5.00;;
26820;SDS011;37186;51.394;5.454;2022-11-15T16:28:02;4.93;;;4.83;;
26820;SDS011;37186;51.394;5.454;2022-11-15T16:31:07;5.28;;;5.18;;
26820;SDS011;37186;51.394;5.454;2022-11-15T16:34:10;4.75;;;4.65;;
26820;SDS011;37186;51.394;5.454;2022-11-15T16:37:22;4.87;;;4.77;;
26820;SDS011;37186;51.394;5.454;2022-11-15T16:40:28;4.67;;;4.57;;
26820;SDS011;37186;51.394;5.454;2022-11-15T16:43:30;4.70;;;4.60;;
26820;SDS011;37186;51.394;5.454;2022-11-15T16:46:31;4.77;;;4.67;;
26820;SDS011;37186;51.394;5.454;2022-11-15T16:49:31;4.70;;;4.60;;
26820;SDS011;37186;51.394;5.454;2022-11-15T16:52:32;4.83;;;4.73;;
26820;SDS011;37186;51.394;5.454;2022-11-15T16:55:32;4.60;;;4.50;;
26820;SDS011;37186;51.394;5.454;2022-11-15T16:58:33;4.63;;;4.53;;
26820;SDS011;37186;51.394;5.454;2022-11-15T17:01:37;4.73;;;4.63;;
26820;SDS011;37186;51.394;5.454;2022-11-15T17:04:45;4.50;;;4.40;;
26820;SDS011;37186;51.394;5.454;2022-11-15T17:07:47;4.53;;;4.43;;
26820;SDS011;37186;51.394;5.454;2022-11-15T17:10:49;4.80;;;4.70;;
26820;SDS011;37186;51.394;5.454;2022-11-15T17:13:50;4.63;;;4.53;;
26820;SDS011;37186;51.394;5.454;2022-11-15T17:16:50;4.50;;;4.40;;
26820;SDS011;37186;51.394;5.454;2022-11-15T17:19:51;4.50;;;4.40;;
26820;SDS011;37186;51.394;5.454;2022-11-15T17:22:52;4.20;;;4.10;;
26820;SDS011;37186;51.394;5.454;2022-11-15T17:26:00;4.43;;;4.33;;
26820;SDS011;37186;51.394;5.454;2022-11-15T17:29:03;4.50;;;4.40;;
26820;SDS011;37186;51.394;5.454;2022-11-15T17:32:07;4.10;;;4.00;;
26820;SDS011;37186;51.394;5.454;2022-11-15T17:35:08;4.10;;;4.00;;
26820;SDS011;37186;51.394;5.454;2022-11-15T17:38:10;4.10;;;4.00;;
26820;SDS011;37186;51.394;5.454;2022-11-15T17:41:12;4.27;;;4.17;;
26820;SDS011;37186;51.394;5.454;2022-11-15T17:44:14;4.20;;;4.10;;
26820;SDS011;37186;51.394;5.454;2022-11-15T17:47:14;4.40;;;4.30;;
26820;SDS011;37186;51.394;5.454;2022-11-15T17:50:15;4.00;;;3.90;;
26820;SDS011;37186;51.394;5.454;2022-11-15T17:53:16;3.90;;;3.80;;
26820;SDS011;37186;51.394;5.454;2022-11-15T17:56:20;4.20;;;4.10;;
26820;SDS011;37186;51.394;5.454;2022-11-15T17:59:22;4.40;;;4.30;;
26820;SDS011;37186;51.394;5.454;2022-11-15T18:02:22;4.10;;;4.00;;
26820;SDS011;37186;51.394;5.454;2022-11-15T18:05:23;4.00;;;3.90;;
26820;SDS011;37186;51.394;5.454;2022-11-15T18:08:23;3.90;;;3.80;;
26820;SDS011;37186;51.394;5.454;2022-11-15T18:11:28;4.00;;;3.90;;
26820;SDS011;37186;51.394;5.454;2022-11-15T18:14:34;4.10;;;4.00;;
26820;SDS011;37186;51.394;5.454;2022-11-15T18:17:34;4.00;;;3.90;;
26820;SDS011;37186;51.394;5.454;2022-11-15T18:20:36;4.20;;;4.10;;
26820;SDS011;37186;51.394;5.454;2022-11-15T18:23:36;4.10;;;4.00;;
26820;SDS011;37186;51.394;5.454;2022-11-15T18:26:37;4.23;;;4.13;;
26820;SDS011;37186;51.394;5.454;2022-11-15T18:29:38;4.30;;;4.20;;
26820;SDS011;37186;51.394;5.454;2022-11-15T18:32:38;4.20;;;4.10;;
26820;SDS011;37186;51.394;5.454;2022-11-15T18:35:39;4.10;;;4.00;;
26820;SDS011;37186;51.394;5.454;2022-11-15T18:38:40;4.10;;;4.00;;
26820;SDS011;37186;51.394;5.454;2022-11-15T18:41:41;4.23;;;4.13;;
26820;SDS011;37186;51.394;5.454;2022-11-15T18:44:43;4.17;;;4.07;;
26820;SDS011;37186;51.394;5.454;2022-11-15T18:47:43;4.30;;;4.20;;
26820;SDS011;37186;51.394;5.454;2022-11-15T18:50:44;3.93;;;3.83;;
26820;SDS011;37186;51.394;5.454;2022-11-15T18:53:44;3.90;;;3.80;;
26820;SDS011;37186;51.394;5.454;2022-11-15T18:56:45;4.30;;;4.20;;
26820;SDS011;37186;51.394;5.454;2022-11-15T18:59:46;3.90;;;3.80;;
26820;SDS011;37186;51.394;5.454;2022-11-15T19:02:47;3.80;;;3.70;;
26820;SDS011;37186;51.394;5.454;2022-11-15T19:05:47;3.90;;;3.80;;
26820;SDS011;37186;51.394;5.454;2022-11-15T19:08:48;4.03;;;3.93;;
26820;SDS011;37186;51.394;5.454;2022-11-15T19:11:51;4.03;;;3.93;;
26820;SDS011;37186;51.394;5.454;2022-11-15T19:14:52;3.75;;;3.65;;
26820;SDS011;37186;51.394;5.454;2022-11-15T19:17:53;4.03;;;3.93;;
26820;SDS011;37186;51.394;5.454;2022-11-15T19:20:53;3.90;;;3.80;;
26820;SDS011;37186;51.394;5.454;2022-11-15T19:23:55;4.10;;;4.00;;
26820;SDS011;37186;51.394;5.454;2022-11-15T19:26:56;3.90;;;3.80;;
26820;SDS011;37186;51.394;5.454;2022-11-15T19:29:56;4.10;;;4.00;;
26820;SDS011;37186;51.394;5.454;2022-11-15T19:32:57;4.20;;;4.10;;
26820;SDS011;37186;51.394;5.454;2022-11-15T19:36:01;4.33;;;4.23;;
26820;SDS011;37186;51.394;5.454;2022-11-15T19:39:07;3.80;;;3.70;;